createdAt,value
2019-06-20T00:00:16.278Z,61.60
2019-06-20T00:02:45.456Z,61.90
2019-06-20T00:05:14.559Z,62.00
2019-06-20T00:07:45.444Z,62.20
2019-06-20T00:10:14.540Z,62.30
2019-06-20T00:12:59.217Z,62.40
2019-06-20T00:15:15.504Z,62.20
2019-06-20T00:17:44.674Z,62.40
2019-06-20T00:20:14.298Z,62.30
2019-06-20T00:22:43.589Z,62.40
2019-06-20T00:25:12.982Z,62.40
2019-06-20T00:27:42.091Z,62.30
2019-06-20T00:30:11.668Z,62.20
2019-06-20T00:32:40.777Z,62.20
2019-06-20T00:35:10.220Z,62.40
2019-06-20T00:37:39.341Z,62.70
2019-06-20T00:40:08.996Z,62.80
2019-06-20T00:42:38.118Z,63.00
2019-06-20T00:45:08.496Z,62.90
2019-06-20T00:47:37.665Z,62.90
2019-06-20T00:50:07.155Z,63.10
2019-06-20T00:52:36.272Z,63.40
2019-06-20T00:55:06.317Z,63.20
2019-06-20T00:57:35.595Z,63.50
2019-06-20T01:00:06.027Z,63.40
2019-06-20T01:02:35.061Z,63.40
2019-06-20T01:05:04.615Z,63.50
2019-06-20T01:07:33.766Z,63.60
2019-06-20T01:10:02.908Z,63.20
2019-06-20T01:12:31.969Z,63.30
2019-06-20T01:15:01.040Z,63.40
2019-06-20T01:17:30.119Z,63.30
2019-06-20T01:19:59.257Z,63.60
2019-06-20T01:22:28.342Z,63.40
2019-06-20T01:24:57.443Z,63.50
2019-06-20T01:27:26.472Z,63.40
2019-06-20T01:29:55.584Z,63.30
2019-06-20T01:32:24.724Z,63.50
2019-06-20T01:34:53.969Z,63.40
2019-06-20T01:37:23.091Z,63.10
2019-06-20T01:39:52.224Z,63.00
2019-06-20T01:42:21.497Z,62.80
2019-06-20T01:44:50.595Z,62.40
2019-06-20T01:47:19.671Z,62.10
2019-06-20T01:49:48.762Z,62.10
2019-06-20T01:52:17.879Z,62.10
2019-06-20T01:54:47.011Z,62.00
2019-06-20T01:57:17.229Z,61.80
2019-06-20T01:59:46.416Z,62.00
2019-06-20T02:02:15.540Z,61.90
2019-06-20T02:04:44.705Z,62.00
2019-06-20T02:07:13.849Z,63.00
2019-06-20T02:09:42.958Z,61.90
2019-06-20T02:12:12.072Z,62.00
2019-06-20T02:14:41.177Z,62.20
2019-06-20T02:17:10.246Z,62.80
2019-06-20T02:19:39.417Z,62.80
2019-06-20T02:22:08.510Z,62.80
2019-06-20T02:24:37.630Z,63.00
2019-06-20T02:27:06.816Z,62.80
2019-06-20T02:29:35.961Z,62.60
2019-06-20T02:32:05.234Z,63.00
2019-06-20T02:34:34.354Z,62.70
2019-06-20T02:37:03.482Z,62.70
2019-06-20T02:39:32.626Z,62.80
2019-06-20T02:42:01.785Z,63.00
2019-06-20T02:44:31.188Z,62.80
2019-06-20T02:47:00.465Z,62.60
2019-06-20T02:49:29.577Z,62.70
2019-06-20T02:51:58.765Z,62.90
2019-06-20T02:54:27.868Z,62.70
2019-06-20T02:56:56.955Z,62.70
2019-06-20T02:59:26.079Z,62.70
2019-06-20T03:01:55.175Z,62.80
2019-06-20T03:04:24.290Z,62.80
2019-06-20T03:06:53.353Z,63.00
2019-06-20T03:09:23.549Z,63.10
2019-06-20T03:11:52.597Z,63.10
2019-06-20T03:14:21.815Z,63.30
2019-06-20T03:16:50.896Z,63.60
2019-06-20T03:19:19.999Z,63.50
2019-06-20T03:21:49.107Z,63.90
2019-06-20T03:24:18.211Z,63.90
2019-06-20T03:26:47.339Z,64.00
2019-06-20T03:29:16.468Z,64.20
2019-06-20T03:31:45.574Z,64.30
2019-06-20T03:34:14.707Z,64.50
2019-06-20T03:36:43.827Z,64.50
2019-06-20T03:39:13.018Z,64.50
2019-06-20T03:41:42.160Z,64.60
2019-06-20T03:44:11.376Z,65.00
2019-06-20T03:46:40.475Z,65.20
2019-06-20T03:49:09.601Z,65.30
2019-06-20T03:51:38.735Z,65.60
2019-06-20T03:54:07.932Z,65.80
2019-06-20T03:56:37.066Z,65.70
2019-06-20T03:59:06.181Z,66.10
2019-06-20T04:01:35.375Z,65.70
2019-06-20T04:04:04.480Z,65.90
2019-06-20T04:06:33.556Z,65.70
2019-06-20T04:09:02.700Z,66.00
2019-06-20T04:11:31.838Z,66.20
2019-06-20T04:14:00.970Z,66.30
2019-06-20T04:16:29.997Z,66.50
2019-06-20T04:18:59.066Z,66.40
2019-06-20T04:21:28.228Z,66.30
2019-06-20T04:23:57.337Z,66.80
2019-06-20T04:26:26.366Z,66.70
2019-06-20T04:28:55.462Z,67.00
2019-06-20T04:31:26.020Z,67.70
2019-06-20T04:33:55.149Z,67.50
2019-06-20T04:36:24.340Z,67.50
2019-06-20T04:38:54.640Z,68.00
2019-06-20T04:41:23.748Z,68.60
2019-06-20T04:43:52.867Z,68.90
2019-06-20T04:46:27.386Z,69.10
2019-06-20T04:48:56.508Z,69.40
2019-06-20T04:51:25.510Z,69.60
2019-06-20T04:53:54.587Z,69.50
2019-06-20T04:56:23.804Z,69.60
2019-06-20T04:58:52.882Z,69.90
2019-06-20T05:01:21.938Z,70.20
2019-06-20T05:03:51.034Z,70.10
2019-06-20T05:06:20.162Z,70.30
2019-06-20T05:08:49.244Z,70.70
2019-06-20T05:11:18.360Z,71.90
2019-06-20T05:13:47.458Z,71.20
2019-06-20T05:16:16.569Z,71.40
2019-06-20T05:18:45.573Z,71.80
2019-06-20T05:21:14.699Z,72.40
2019-06-20T05:23:43.773Z,72.60
2019-06-20T05:26:12.897Z,72.70
2019-06-20T05:28:42.023Z,73.00
2019-06-20T05:31:11.131Z,73.20
2019-06-20T05:33:40.197Z,73.50
2019-06-20T05:36:09.343Z,73.30
2019-06-20T05:38:38.434Z,73.20
2019-06-20T05:41:07.541Z,73.20
2019-06-20T05:43:36.733Z,73.20
2019-06-20T05:46:09.934Z,73.00
2019-06-20T05:48:36.701Z,73.00
2019-06-20T05:51:06.323Z,72.90
2019-06-20T05:53:35.533Z,72.90
2019-06-20T05:56:04.785Z,73.00
2019-06-20T05:58:33.933Z,73.10
2019-06-20T06:01:03.061Z,73.20
2019-06-20T06:03:32.206Z,73.20
2019-06-20T06:06:01.407Z,73.40
2019-06-20T06:08:30.524Z,73.30
2019-06-20T06:10:59.567Z,73.30
2019-06-20T06:13:28.766Z,73.20
2019-06-20T06:15:57.942Z,73.10
2019-06-20T06:18:27.074Z,73.10
2019-06-20T06:20:56.179Z,73.10
2019-06-20T06:23:25.281Z,73.20
2019-06-20T06:25:54.391Z,73.20
2019-06-20T06:28:23.494Z,73.20
2019-06-20T06:30:52.592Z,73.40
2019-06-20T06:33:21.695Z,73.40
2019-06-20T06:35:50.827Z,73.40
2019-06-20T06:38:22.202Z,73.40
2019-06-20T06:40:50.940Z,73.20
2019-06-20T06:43:20.047Z,73.20
2019-06-20T06:45:49.168Z,73.20
2019-06-20T06:48:18.309Z,73.20
2019-06-20T06:50:47.476Z,73.30
2019-06-20T06:53:18.165Z,73.40
2019-06-20T06:55:47.296Z,73.40
2019-06-20T06:58:16.396Z,73.40
2019-06-20T07:00:45.504Z,73.50
2019-06-20T07:03:14.633Z,73.70
2019-06-20T07:05:43.767Z,73.80
2019-06-20T07:08:12.960Z,74.00
2019-06-20T07:10:42.108Z,74.00
2019-06-20T07:13:11.202Z,74.00
2019-06-20T07:15:40.326Z,74.20
2019-06-20T07:18:09.426Z,74.50
2019-06-20T07:20:38.582Z,74.70
2019-06-20T07:23:07.722Z,74.80
2019-06-20T07:25:36.896Z,74.90
2019-06-20T07:28:05.992Z,74.70
2019-06-20T07:30:35.122Z,74.90
2019-06-20T07:33:04.310Z,74.90
2019-06-20T07:35:33.417Z,75.20
2019-06-20T07:38:02.629Z,75.40
2019-06-20T07:40:32.379Z,75.40
2019-06-20T07:43:01.481Z,75.50
2019-06-20T07:45:30.601Z,75.50
2019-06-20T07:47:59.775Z,75.50
2019-06-20T07:50:28.986Z,75.50
2019-06-20T07:53:02.383Z,75.40
2019-06-20T07:55:29.001Z,75.30
2019-06-20T07:57:58.135Z,75.20
2019-06-20T08:00:27.624Z,75.00
2019-06-20T08:02:56.775Z,75.00
2019-06-20T08:05:25.870Z,74.80
2019-06-20T08:07:55.022Z,74.90
2019-06-20T08:10:25.028Z,74.90
2019-06-20T08:12:54.308Z,74.50
2019-06-20T08:15:23.632Z,74.30
2019-06-20T08:17:52.767Z,74.10
2019-06-20T08:20:22.005Z,74.00
2019-06-20T08:22:51.171Z,74.00
2019-06-20T08:25:20.636Z,73.80
2019-06-20T08:27:50.440Z,73.80
2019-06-20T08:30:21.803Z,73.40
2019-06-20T08:32:51.007Z,73.40
2019-06-20T08:35:22.775Z,73.30
2019-06-20T08:37:53.065Z,73.10
2019-06-20T08:40:23.323Z,73.50
2019-06-20T08:42:52.766Z,73.00
2019-06-20T08:45:22.979Z,72.90
2019-06-20T08:47:52.109Z,72.90
2019-06-20T08:50:21.189Z,72.70
2019-06-20T08:52:50.319Z,72.10
2019-06-20T08:55:19.735Z,71.90
2019-06-20T08:57:49.005Z,71.80
2019-06-20T09:00:18.310Z,71.00
2019-06-20T09:02:47.522Z,70.80
2019-06-20T09:05:16.951Z,70.60
2019-06-20T09:07:46.849Z,70.50
2019-06-20T09:10:16.845Z,70.00
2019-06-20T09:12:46.283Z,70.10
2019-06-20T09:15:15.964Z,69.20
2019-06-20T09:17:45.086Z,68.70
2019-06-20T09:20:16.271Z,67.90
2019-06-20T09:22:45.418Z,67.80
2019-06-20T09:25:16.080Z,67.30
2019-06-20T09:27:45.275Z,67.30
2019-06-20T09:30:16.140Z,67.40
2019-06-20T09:32:45.267Z,67.30
2019-06-20T09:35:14.549Z,67.30
2019-06-20T09:37:43.634Z,67.20
2019-06-20T09:40:13.146Z,67.20
2019-06-20T09:42:42.264Z,67.20
2019-06-20T09:45:12.771Z,66.90
2019-06-20T09:47:41.878Z,66.60
2019-06-20T09:50:12.834Z,66.20
2019-06-20T09:52:42.013Z,65.80
2019-06-20T09:55:12.604Z,64.90
2019-06-20T09:57:41.749Z,65.00
2019-06-20T10:00:13.158Z,64.80
2019-06-20T10:02:42.325Z,64.60
2019-06-20T10:05:12.145Z,63.90
2019-06-20T10:07:41.317Z,63.00
2019-06-20T10:10:11.771Z,61.90
2019-06-20T10:12:40.854Z,61.40
2019-06-20T10:15:21.628Z,61.00
2019-06-20T10:17:50.976Z,61.20
2019-06-20T10:20:21.749Z,62.40
2019-06-20T10:22:51.049Z,61.80
2019-06-20T10:25:21.157Z,62.00
2019-06-20T10:27:51.408Z,62.10
2019-06-20T10:30:21.640Z,62.30
2019-06-20T10:32:51.054Z,62.00
2019-06-20T10:35:22.193Z,61.40
2019-06-20T10:37:53.005Z,61.00
2019-06-20T10:40:22.823Z,59.40
2019-06-20T10:42:52.950Z,58.70
2019-06-20T10:45:24.727Z,58.50
2019-06-20T10:47:54.245Z,57.60
2019-06-20T10:50:23.650Z,57.30
2019-06-20T10:52:53.297Z,57.30
2019-06-20T10:55:22.499Z,58.10
2019-06-20T10:57:52.018Z,58.70
2019-06-20T11:00:30.836Z,59.30
2019-06-20T11:02:54.597Z,59.80
2019-06-20T11:05:23.704Z,60.60
2019-06-20T11:07:52.813Z,60.50
2019-06-20T11:10:22.715Z,60.30
2019-06-20T11:12:55.749Z,59.70
2019-06-20T11:15:24.181Z,59.40
2019-06-20T11:17:56.352Z,59.20
2019-06-20T11:20:24.323Z,58.50
2019-06-20T11:22:53.491Z,58.50
2019-06-20T11:25:22.849Z,57.70
2019-06-20T11:27:51.989Z,57.20
2019-06-20T11:30:22.821Z,57.00
2019-06-20T11:32:52.012Z,57.20
2019-06-20T11:35:21.097Z,57.10
2019-06-20T11:37:50.241Z,57.30
2019-06-20T11:40:19.933Z,57.30
2019-06-20T11:42:49.061Z,56.30
2019-06-20T11:45:18.396Z,56.20
2019-06-20T11:47:47.590Z,54.80
2019-06-20T11:50:17.070Z,55.30
2019-06-20T11:52:46.212Z,55.30
2019-06-20T11:55:16.929Z,54.80
2019-06-20T11:57:46.165Z,55.10
2019-06-20T12:00:15.759Z,53.70
2019-06-20T12:02:46.157Z,53.50
2019-06-20T12:05:16.841Z,52.30
2019-06-20T12:07:47.729Z,51.60
2019-06-20T12:10:17.536Z,50.90
2019-06-20T12:12:46.986Z,51.00
2019-06-20T12:15:18.621Z,50.90
2019-06-20T12:17:49.129Z,51.20
2019-06-20T12:20:18.906Z,52.60
2019-06-20T12:22:50.517Z,52.80
2019-06-20T12:25:19.551Z,53.50
2019-06-20T12:27:49.731Z,53.70
2019-06-20T12:30:19.637Z,53.50
2019-06-20T12:32:49.377Z,53.50
2019-06-20T12:35:19.155Z,53.20
2019-06-20T12:37:49.803Z,53.00
2019-06-20T12:40:19.577Z,53.00
2019-06-20T12:42:49.294Z,53.10
2019-06-20T12:45:18.800Z,52.60
2019-06-20T12:47:47.951Z,52.90
2019-06-20T12:50:17.378Z,52.90
2019-06-20T12:52:47.615Z,52.90
2019-06-20T12:55:17.362Z,52.80
2019-06-20T12:57:46.604Z,52.50
2019-06-20T13:00:17.766Z,51.70
2019-06-20T13:02:47.427Z,51.60
2019-06-20T13:05:17.534Z,51.50
2019-06-20T13:07:46.839Z,51.00
2019-06-20T13:10:16.394Z,51.50
2019-06-20T13:12:46.357Z,51.70
2019-06-20T13:15:15.839Z,51.60
2019-06-20T13:17:45.607Z,51.30
2019-06-20T13:20:17.485Z,51.30
2019-06-20T13:22:46.911Z,51.40
2019-06-20T13:25:16.021Z,50.60
2019-06-20T13:27:45.706Z,50.00
2019-06-20T13:30:15.629Z,50.00
2019-06-20T13:32:45.384Z,49.90
2019-06-20T13:35:15.844Z,50.00
2019-06-20T13:37:45.696Z,50.40
2019-06-20T13:40:15.949Z,51.30
2019-06-20T13:42:46.123Z,51.00
2019-06-20T13:45:24.151Z,51.30
2019-06-20T13:47:53.262Z,51.50
2019-06-20T13:50:24.183Z,51.90
2019-06-20T13:52:53.269Z,52.30
2019-06-20T13:55:22.417Z,52.40
2019-06-20T13:57:51.576Z,52.00
2019-06-20T14:00:23.270Z,51.80
2019-06-20T14:02:52.394Z,51.60
2019-06-20T14:05:21.975Z,51.80
2019-06-20T14:07:53.594Z,52.00
2019-06-20T14:10:22.527Z,52.10
2019-06-20T14:12:51.619Z,52.70
2019-06-20T14:15:20.949Z,53.20
2019-06-20T14:17:50.137Z,53.30
2019-06-20T14:20:20.674Z,53.50
2019-06-20T14:22:49.847Z,53.20
2019-06-20T14:25:20.705Z,52.70
2019-06-20T14:27:51.389Z,53.20
2019-06-20T14:30:21.478Z,52.10
2019-06-20T14:32:51.448Z,52.20
2019-06-20T14:35:21.230Z,51.80
2019-06-20T14:37:51.798Z,52.00
2019-06-20T14:40:21.826Z,52.30
2019-06-20T14:42:52.175Z,52.30
2019-06-20T14:45:22.060Z,52.40
2019-06-20T14:47:52.424Z,52.30
2019-06-20T14:50:23.120Z,52.10
2019-06-20T14:52:52.729Z,51.80
2019-06-20T14:55:23.295Z,51.20
2019-06-20T14:57:52.643Z,50.50
2019-06-20T15:00:22.851Z,50.10
2019-06-20T15:02:56.674Z,49.70
2019-06-20T15:05:22.871Z,49.80
2019-06-20T15:07:53.779Z,50.10
2019-06-20T15:10:22.951Z,50.70
2019-06-20T15:12:53.639Z,51.20
2019-06-20T15:15:23.042Z,51.40
2019-06-20T15:17:54.069Z,51.70
2019-06-20T15:20:23.004Z,51.80
2019-06-20T15:22:52.851Z,51.90
2019-06-20T15:25:22.392Z,51.90
2019-06-20T15:27:53.416Z,52.10
2019-06-20T15:30:22.314Z,52.20
2019-06-20T15:33:04.050Z,52.00
2019-06-20T15:35:22.480Z,52.00
2019-06-20T15:37:53.280Z,51.90
2019-06-20T15:40:22.460Z,52.10
2019-06-20T15:42:53.014Z,52.10
2019-06-20T15:45:22.367Z,52.20
2019-06-20T15:47:51.542Z,52.40
2019-06-20T15:50:20.667Z,52.70
2019-06-20T15:52:49.763Z,52.90
2019-06-20T15:55:20.617Z,53.50
2019-06-20T15:57:49.694Z,52.70
2019-06-20T16:00:19.150Z,52.70
2019-06-20T16:02:48.249Z,52.90
2019-06-20T16:05:17.373Z,53.10
2019-06-20T16:07:46.564Z,53.20
2019-06-20T16:10:15.991Z,53.30
2019-06-20T16:12:45.101Z,53.40
2019-06-20T16:15:20.471Z,53.50
2019-06-20T16:17:49.651Z,53.60
2019-06-20T16:20:18.956Z,53.80
2019-06-20T16:22:48.165Z,54.00
2019-06-20T16:25:18.291Z,54.30
2019-06-20T16:27:47.608Z,54.70
2019-06-20T16:30:17.716Z,54.90
2019-06-20T16:32:46.810Z,55.10
2019-06-20T16:35:17.334Z,55.10
2019-06-20T16:37:46.459Z,55.10
2019-06-20T16:40:18.590Z,55.10
2019-06-20T16:42:55.731Z,54.90
2019-06-20T16:45:24.995Z,54.80
2019-06-20T16:47:54.192Z,55.00
2019-06-20T16:50:23.311Z,55.10
2019-06-20T16:52:52.414Z,55.30
2019-06-20T16:55:21.567Z,55.40
2019-06-20T16:57:50.708Z,55.40
2019-06-20T17:00:19.853Z,55.40
2019-06-20T17:02:48.944Z,55.70
2019-06-20T17:05:18.379Z,55.80
2019-06-20T17:07:47.469Z,55.90
2019-06-20T17:10:16.566Z,56.30
2019-06-20T17:12:45.654Z,56.60
2019-06-20T17:15:14.967Z,56.10
2019-06-20T17:17:44.039Z,56.30
2019-06-20T17:20:13.284Z,56.70
2019-06-20T17:22:43.515Z,56.70
2019-06-20T17:25:13.828Z,57.70
2019-06-20T17:27:42.938Z,56.90
2019-06-20T17:30:12.786Z,57.10
2019-06-20T17:32:41.963Z,57.50
2019-06-20T17:35:11.459Z,57.20
2019-06-20T17:37:40.572Z,57.20
2019-06-20T17:40:11.513Z,57.20
2019-06-20T17:42:40.656Z,57.00
2019-06-20T17:45:10.590Z,56.90
2019-06-20T17:47:39.682Z,57.10
2019-06-20T17:50:09.227Z,57.30
2019-06-20T17:52:38.332Z,57.40
2019-06-20T17:55:07.972Z,57.40
2019-06-20T17:57:37.106Z,57.30
2019-06-20T18:00:08.218Z,57.30
2019-06-20T18:02:37.415Z,57.40
2019-06-20T18:05:08.108Z,57.40
2019-06-20T18:07:37.198Z,57.20
2019-06-20T18:10:07.192Z,57.50
2019-06-20T18:12:36.322Z,57.60
2019-06-20T18:15:06.852Z,57.90
2019-06-20T18:17:35.936Z,58.20
2019-06-20T18:20:05.762Z,58.50
2019-06-20T18:22:34.878Z,58.60
2019-06-20T18:25:04.240Z,58.70
2019-06-20T18:27:33.339Z,58.90
2019-06-20T18:30:02.476Z,59.00
2019-06-20T18:32:31.556Z,59.10
2019-06-20T18:35:02.300Z,59.10
2019-06-20T18:37:32.011Z,59.00
2019-06-20T18:40:01.307Z,58.90
2019-06-20T18:42:30.393Z,58.80
2019-06-20T18:44:59.506Z,58.60
2019-06-20T18:47:28.586Z,58.30
2019-06-20T18:49:57.737Z,58.10
2019-06-20T18:52:26.826Z,58.10
2019-06-20T18:54:55.975Z,58.00
2019-06-20T18:57:25.123Z,57.90
2019-06-20T18:59:54.265Z,57.80
2019-06-20T19:02:23.357Z,57.50
2019-06-20T19:04:52.517Z,57.30
2019-06-20T19:07:21.620Z,57.00
2019-06-20T19:09:51.073Z,56.90
2019-06-20T19:12:20.207Z,56.90
2019-06-20T19:14:49.322Z,56.70
2019-06-20T19:17:18.415Z,56.50
2019-06-20T19:19:47.531Z,56.70
2019-06-20T19:22:16.640Z,56.60
2019-06-20T19:24:45.747Z,56.50
2019-06-20T19:27:14.878Z,56.50
2019-06-20T19:29:44.007Z,56.70
2019-06-20T19:32:13.126Z,56.80
2019-06-20T19:34:42.289Z,56.80
2019-06-20T19:37:11.402Z,57.00
2019-06-20T19:39:40.533Z,57.20
2019-06-20T19:42:09.616Z,57.20
2019-06-20T19:44:38.737Z,57.50
2019-06-20T19:47:07.839Z,57.60
2019-06-20T19:49:36.976Z,57.60
2019-06-20T19:52:06.164Z,57.60
2019-06-20T19:54:35.366Z,57.80
2019-06-20T19:57:04.594Z,57.80
2019-06-20T19:59:33.715Z,58.40
2019-06-20T20:02:02.808Z,58.00
2019-06-20T20:04:31.995Z,58.10
2019-06-20T20:07:01.141Z,58.10
2019-06-20T20:09:30.251Z,58.10
2019-06-20T20:11:59.447Z,58.40
2019-06-20T20:14:28.728Z,58.30
2019-06-20T20:16:57.882Z,58.20
2019-06-20T20:19:27.014Z,58.50
2019-06-20T20:21:56.195Z,58.40
2019-06-20T20:24:25.310Z,58.60
2019-06-20T20:26:54.412Z,58.70
2019-06-20T20:29:23.603Z,58.90
2019-06-20T20:31:52.728Z,59.10
2019-06-20T20:34:21.871Z,59.30
2019-06-20T20:36:50.974Z,59.50
2019-06-20T20:39:20.163Z,59.50
2019-06-20T20:41:49.392Z,59.50
2019-06-20T20:44:18.563Z,59.90
2019-06-20T20:46:47.658Z,60.00
2019-06-20T20:49:16.728Z,60.00
2019-06-20T20:51:45.880Z,60.10
2019-06-20T20:54:15.072Z,60.30
2019-06-20T20:56:44.253Z,60.40
2019-06-20T20:59:14.821Z,60.60
2019-06-20T21:01:43.844Z,60.50
2019-06-20T21:04:12.979Z,61.00
2019-06-20T21:06:42.078Z,60.80
2019-06-20T21:09:11.285Z,60.90
2019-06-20T21:11:41.879Z,61.10
2019-06-20T21:14:11.010Z,61.30
2019-06-20T21:16:40.127Z,61.30
2019-06-20T21:19:09.405Z,61.30
2019-06-20T21:21:38.528Z,61.60
2019-06-20T21:24:07.641Z,61.70
2019-06-20T21:26:49.083Z,61.90
2019-06-20T21:29:07.576Z,61.90
2019-06-20T21:31:36.738Z,62.00
2019-06-20T21:34:05.931Z,62.10
2019-06-20T21:36:35.115Z,62.20
2019-06-20T21:39:06.438Z,62.20
2019-06-20T21:41:35.613Z,62.10
2019-06-20T21:44:04.896Z,62.10
2019-06-20T21:46:35.212Z,62.00
2019-06-20T21:49:04.370Z,62.40
2019-06-20T21:51:33.553Z,62.30
2019-06-20T21:54:02.641Z,62.10
2019-06-20T21:56:31.840Z,62.40
2019-06-20T21:59:01.037Z,62.20
2019-06-20T22:01:30.461Z,62.20
2019-06-20T22:03:59.621Z,61.90
2019-06-20T22:06:28.754Z,62.00
2019-06-20T22:08:57.874Z,62.00
2019-06-20T22:11:27.132Z,62.20
2019-06-20T22:13:56.277Z,62.20
2019-06-20T22:16:25.489Z,62.20
2019-06-20T22:18:54.617Z,62.30
2019-06-20T22:21:23.700Z,62.70
2019-06-20T22:23:52.819Z,62.70
2019-06-20T22:26:22.001Z,62.90
2019-06-20T22:28:51.160Z,63.10
2019-06-20T22:31:20.391Z,63.20
2019-06-20T22:33:49.586Z,63.20
2019-06-20T22:36:20.604Z,63.30
2019-06-20T22:38:49.803Z,63.50
2019-06-20T22:41:19.182Z,63.70
2019-06-20T22:43:48.312Z,63.70
2019-06-20T22:46:17.452Z,64.00
2019-06-20T22:48:46.568Z,64.00
2019-06-20T22:51:15.710Z,64.20
2019-06-20T22:53:46.074Z,64.10
2019-06-20T22:56:15.225Z,64.20
2019-06-20T22:58:45.782Z,64.60
2019-06-20T23:01:14.888Z,64.50
2019-06-20T23:03:43.998Z,64.70
2019-06-20T23:06:13.184Z,64.90
2019-06-20T23:08:43.856Z,64.90
2019-06-20T23:11:12.966Z,65.00
2019-06-20T23:13:42.081Z,65.00
2019-06-20T23:16:11.423Z,65.00
2019-06-20T23:18:40.568Z,64.90
2019-06-20T23:21:09.718Z,65.20
2019-06-20T23:23:38.907Z,64.90
2019-06-20T23:26:09.715Z,65.10
2019-06-20T23:28:38.923Z,65.00
2019-06-20T23:31:08.215Z,65.10
2019-06-20T23:33:37.326Z,65.20
2019-06-20T23:36:06.449Z,65.00
2019-06-20T23:38:35.594Z,65.40
2019-06-20T23:41:04.789Z,65.50
2019-06-20T23:43:33.805Z,65.50
2019-06-20T23:46:03.061Z,65.40
2019-06-20T23:48:32.195Z,66.00
2019-06-20T23:51:01.287Z,65.70
2019-06-20T23:53:30.386Z,65.70
2019-06-20T23:55:59.603Z,65.70
2019-06-20T23:58:28.653Z,65.80
